createdAt,value
2018-05-08T00:00:00.221Z,5.82
2018-05-08T00:02:04.036Z,4.43
2018-05-08T00:04:07.844Z,9.38
2018-05-08T00:06:11.670Z,4.37
2018-05-08T00:08:15.480Z,4.95
2018-05-08T00:10:19.238Z,5.05
2018-05-08T00:12:23.106Z,4.80
2018-05-08T00:14:26.910Z,6.45
2018-05-08T00:16:30.753Z,5.28
2018-05-08T00:18:34.556Z,6.60
2018-05-08T00:20:38.386Z,6.20
2018-05-08T00:22:42.210Z,6.18
2018-05-08T00:24:46.002Z,5.15
2018-05-08T00:26:49.486Z,5.70
2018-05-08T00:28:53.307Z,4.75
2018-05-08T00:30:57.103Z,5.53
2018-05-08T00:33:00.918Z,7.45
2018-05-08T00:35:04.730Z,5.43
2018-05-08T00:37:08.569Z,6.43
2018-05-08T00:39:12.347Z,4.68
2018-05-08T00:41:16.432Z,5.62
2018-05-08T00:43:20.253Z,6.35
2018-05-08T00:45:24.077Z,6.22
2018-05-08T00:47:27.904Z,6.30
2018-05-08T00:49:31.729Z,6.28
2018-05-08T00:51:35.553Z,4.10
2018-05-08T00:53:39.356Z,5.78
2018-05-08T00:55:43.155Z,5.50
2018-05-08T00:57:46.749Z,5.07
2018-05-08T00:59:50.554Z,7.25
2018-05-08T01:01:54.382Z,6.30
2018-05-08T01:03:58.194Z,7.18
2018-05-08T01:06:02.024Z,6.72
2018-05-08T01:08:05.955Z,7.30
2018-05-08T01:10:09.783Z,6.25
2018-05-08T01:12:13.808Z,7.68
2018-05-08T01:14:18.367Z,5.70
2018-05-08T01:16:21.967Z,4.68
2018-05-08T01:18:25.801Z,6.50
2018-05-08T01:20:29.628Z,6.78
2018-05-08T01:22:33.474Z,6.93
2018-05-08T01:24:37.261Z,6.53
2018-05-08T01:26:41.139Z,5.18
2018-05-08T01:28:44.937Z,7.37
2018-05-08T01:30:48.741Z,8.55
2018-05-08T01:32:52.318Z,5.30
2018-05-08T01:34:56.110Z,6.40
2018-05-08T01:36:59.984Z,5.32
2018-05-08T01:39:03.179Z,6.60
2018-05-08T01:41:07.001Z,5.45
2018-05-08T01:43:10.841Z,6.65
2018-05-08T01:45:14.632Z,7.70
2018-05-08T01:47:18.457Z,5.18
2018-05-08T01:49:22.022Z,5.18
2018-05-08T01:51:25.881Z,5.35
2018-05-08T01:53:29.461Z,5.85
2018-05-08T01:55:33.257Z,9.02
2018-05-08T01:57:37.090Z,5.65
2018-05-08T01:59:40.894Z,10.10
2018-05-08T02:01:44.729Z,6.22
2018-05-08T02:03:48.551Z,6.85
2018-05-08T02:05:52.402Z,5.03
2018-05-08T02:07:56.239Z,5.07
2018-05-08T02:10:00.037Z,8.80
2018-05-08T02:12:03.851Z,5.90
2018-05-08T02:14:07.649Z,6.43
2018-05-08T02:16:11.444Z,7.15
2018-05-08T02:18:15.290Z,6.18
2018-05-08T02:20:19.128Z,5.80
2018-05-08T02:22:23.109Z,8.48
2018-05-08T02:24:26.892Z,4.95
2018-05-08T02:26:30.693Z,6.82
2018-05-08T02:28:34.502Z,6.07
2018-05-08T02:30:38.302Z,7.07
2018-05-08T02:32:42.138Z,9.00
2018-05-08T02:34:45.933Z,6.12
2018-05-08T02:36:49.732Z,5.50
2018-05-08T02:38:53.541Z,5.78
2018-05-08T02:40:57.338Z,5.72
2018-05-08T02:43:01.131Z,4.95
2018-05-08T02:45:04.266Z,5.75
2018-05-08T02:47:08.103Z,5.65
2018-05-08T02:49:11.908Z,4.32
2018-05-08T02:51:15.706Z,5.28
2018-05-08T02:53:19.541Z,5.55
2018-05-08T02:55:23.310Z,6.22
2018-05-08T02:57:27.140Z,7.55
2018-05-08T02:59:30.936Z,6.87
2018-05-08T03:01:34.733Z,6.15
2018-05-08T03:03:38.568Z,6.05
2018-05-08T03:05:42.404Z,8.40
2018-05-08T03:07:46.226Z,5.45
2018-05-08T03:09:50.029Z,8.82
2018-05-08T03:11:53.830Z,8.60
2018-05-08T03:13:57.650Z,9.25
2018-05-08T03:16:01.453Z,7.30
2018-05-08T03:18:05.274Z,5.10
2018-05-08T03:20:09.073Z,7.50
2018-05-08T03:22:12.954Z,7.93
2018-05-08T03:24:16.646Z,7.22
2018-05-08T03:26:20.408Z,8.13
2018-05-08T03:28:24.241Z,8.30
2018-05-08T03:30:28.025Z,8.60
2018-05-08T03:32:31.851Z,8.02
2018-05-08T03:34:35.402Z,6.35
2018-05-08T03:36:39.204Z,6.57
2018-05-08T03:38:43.010Z,7.07
2018-05-08T03:40:46.803Z,9.15
2018-05-08T03:42:50.645Z,9.73
2018-05-08T03:44:54.442Z,8.75
2018-05-08T03:46:58.240Z,8.13
2018-05-08T03:49:02.071Z,8.10
2018-05-08T03:51:05.640Z,7.55
2018-05-08T03:53:09.453Z,9.48
2018-05-08T03:55:13.251Z,5.35
2018-05-08T03:57:17.075Z,6.18
2018-05-08T03:59:20.988Z,6.62
2018-05-08T04:01:35.939Z,4.95
2018-05-08T04:03:50.710Z,5.65
2018-05-08T04:08:32.453Z,9.30
2018-05-08T04:10:36.231Z,6.87
2018-05-08T04:12:40.038Z,5.62
2018-05-08T04:14:43.841Z,6.93
2018-05-08T04:16:47.662Z,7.00
2018-05-08T04:18:51.513Z,5.75
2018-05-08T04:20:55.298Z,8.50
2018-05-08T04:22:59.118Z,6.55
2018-05-08T04:25:02.930Z,9.27
2018-05-08T04:27:06.735Z,6.95
2018-05-08T04:29:10.558Z,10.25
2018-05-08T04:31:14.346Z,7.15
2018-05-08T04:33:18.375Z,6.97
2018-05-08T04:35:22.914Z,9.77
2018-05-08T04:37:26.713Z,7.40
2018-05-08T04:39:30.505Z,7.70
2018-05-08T04:41:34.329Z,6.35
2018-05-08T04:43:38.160Z,6.87
2018-05-08T04:45:41.976Z,6.07
2018-05-08T04:49:12.794Z,7.35
2018-05-08T04:51:16.610Z,11.15
2018-05-08T04:53:20.447Z,6.43
2018-05-08T04:55:24.609Z,6.30
2018-05-08T04:59:36.523Z,7.80
2018-05-08T05:01:40.328Z,5.30
2018-05-08T05:03:44.319Z,4.90
2018-05-08T05:05:48.128Z,6.55
2018-05-08T05:07:51.983Z,7.07
2018-05-08T05:09:56.547Z,6.62
2018-05-08T05:12:02.077Z,7.65
2018-05-08T05:17:10.321Z,6.95
2018-05-08T05:19:14.406Z,7.87
2018-05-08T05:21:18.299Z,4.95
2018-05-08T05:23:22.467Z,14.87
2018-05-08T05:25:26.338Z,7.18
2018-05-08T05:27:30.277Z,9.57
2018-05-08T05:29:34.734Z,7.05
2018-05-08T05:31:38.930Z,7.50
2018-05-08T05:33:42.904Z,6.37
2018-05-08T05:35:46.759Z,9.07
2018-05-08T05:37:50.801Z,6.50
2018-05-08T05:39:54.732Z,6.80
2018-05-08T05:41:58.813Z,7.32
2018-05-08T05:44:02.678Z,7.80
2018-05-08T05:46:06.788Z,8.18
2018-05-08T05:48:10.761Z,9.05
2018-05-08T05:50:14.630Z,8.10
2018-05-08T05:52:18.156Z,5.32
2018-05-08T05:54:22.049Z,6.83
2018-05-08T05:56:25.604Z,10.83
2018-05-08T05:58:29.173Z,8.77
2018-05-08T06:00:32.722Z,7.23
2018-05-08T06:02:36.234Z,6.07
2018-05-08T06:04:39.834Z,10.10
2018-05-08T06:06:43.379Z,9.67
2018-05-08T06:08:46.913Z,4.40
2018-05-08T06:10:50.476Z,6.13
2018-05-08T06:12:54.053Z,8.00
2018-05-08T06:14:57.590Z,5.10
2018-05-08T06:17:01.144Z,6.13
2018-05-08T06:19:04.389Z,4.63
2018-05-08T06:21:07.685Z,5.13
2018-05-08T06:23:11.222Z,3.97
2018-05-08T06:25:14.838Z,3.83
2018-05-08T06:27:18.552Z,4.00
2018-05-08T06:29:22.566Z,6.47
2018-05-08T06:31:26.121Z,5.70
2018-05-08T06:33:30.704Z,4.90
2018-05-08T06:35:34.367Z,6.47
2018-05-08T06:37:37.942Z,3.47
2018-05-08T06:39:41.488Z,6.60
2018-05-08T06:41:45.039Z,3.83
2018-05-08T06:43:48.622Z,4.57
2018-05-08T06:45:52.172Z,7.40
2018-05-08T06:47:55.738Z,7.93
2018-05-08T06:49:59.319Z,4.23
2018-05-08T06:52:03.077Z,3.33
2018-05-08T06:54:06.739Z,5.50
2018-05-08T06:56:10.775Z,3.63
2018-05-08T06:58:14.537Z,4.80
2018-05-08T07:00:18.178Z,3.73
2018-05-08T07:02:21.993Z,4.23
2018-05-08T07:04:26.394Z,4.10
2018-05-08T07:06:30.037Z,3.27
2018-05-08T07:08:33.767Z,4.57
2018-05-08T07:10:37.928Z,4.40
2018-05-08T07:12:41.463Z,6.07
2018-05-08T07:14:45.167Z,5.10
2018-05-08T07:16:48.963Z,3.33
2018-05-08T07:18:52.652Z,3.90
2018-05-08T07:20:59.762Z,4.07
2018-05-08T07:23:05.791Z,4.53
2018-05-08T07:25:11.391Z,2.43
2018-05-08T07:27:17.261Z,3.97
2018-05-08T07:29:22.527Z,3.07
2018-05-08T07:31:26.215Z,4.53
2018-05-08T07:33:29.867Z,3.00
2018-05-08T07:35:33.533Z,5.63
2018-05-08T07:37:37.168Z,4.37
2018-05-08T07:39:40.737Z,3.00
2018-05-08T07:41:44.410Z,5.83
2018-05-08T07:43:47.957Z,4.33
2018-05-08T07:45:51.739Z,3.83
2018-05-08T07:47:55.307Z,3.50
2018-05-08T07:49:58.910Z,3.10
2018-05-08T07:52:02.624Z,2.20
2018-05-08T07:54:06.341Z,3.90
2018-05-08T07:56:09.891Z,2.60
2018-05-08T07:58:13.435Z,4.33
2018-05-08T08:00:16.965Z,3.80
2018-05-08T08:02:20.483Z,6.77
2018-05-08T08:04:24.018Z,7.17
2018-05-08T08:06:34.416Z,2.20
2018-05-08T08:08:45.766Z,2.83
2018-05-08T08:10:55.298Z,3.17
2018-05-08T08:12:58.829Z,1.87
2018-05-08T08:15:02.379Z,4.43
2018-05-08T08:17:05.526Z,3.27
2018-05-08T08:19:09.045Z,5.50
2018-05-08T08:21:12.382Z,6.27
2018-05-08T08:23:15.922Z,3.00
2018-05-08T08:25:19.655Z,4.40
2018-05-08T08:27:23.226Z,3.03
2018-05-08T08:29:26.793Z,3.57
2018-05-08T08:31:30.293Z,4.00
2018-05-08T08:33:33.806Z,4.73
2018-05-08T08:35:37.401Z,5.57
2018-05-08T08:37:41.071Z,3.73
2018-05-08T08:39:44.686Z,4.77
2018-05-08T08:41:48.228Z,2.87
2018-05-08T08:43:51.771Z,3.00
2018-05-08T08:45:55.333Z,7.40
2018-05-08T08:47:58.967Z,3.87
2018-05-08T08:50:02.627Z,2.13
2018-05-08T08:52:06.162Z,7.10
2018-05-08T08:54:09.813Z,4.43
2018-05-08T08:56:13.389Z,2.07
2018-05-08T08:58:16.634Z,5.40
2018-05-08T09:00:20.204Z,4.60
2018-05-08T09:02:23.743Z,2.83
2018-05-08T09:04:27.257Z,2.53
2018-05-08T09:06:30.873Z,4.63
2018-05-08T09:08:34.412Z,4.73
2018-05-08T09:10:37.776Z,3.57
2018-05-08T09:12:41.300Z,3.93
2018-05-08T09:14:44.635Z,4.00
2018-05-08T09:16:48.156Z,2.87
2018-05-08T09:18:52.292Z,3.60
2018-05-08T09:20:55.853Z,5.10
2018-05-08T09:22:59.680Z,4.43
2018-05-08T09:25:03.322Z,2.93
2018-05-08T09:27:06.855Z,3.63
2018-05-08T09:29:10.450Z,3.60
2018-05-08T09:31:14.027Z,3.70
2018-05-08T09:33:17.597Z,3.37
2018-05-08T09:35:21.198Z,4.30
2018-05-08T09:37:25.143Z,4.40
2018-05-08T09:39:28.679Z,5.27
2018-05-08T09:41:32.201Z,3.13
2018-05-08T09:43:36.227Z,2.53
2018-05-08T09:45:39.795Z,9.70
2018-05-08T09:47:43.322Z,2.13
2018-05-08T09:49:46.806Z,3.80
2018-05-08T09:51:50.463Z,4.10
2018-05-08T09:53:54.026Z,5.57
2018-05-08T09:55:58.119Z,5.27
2018-05-08T09:58:01.829Z,4.60
2018-05-08T10:00:07.231Z,3.50
2018-05-08T10:02:10.521Z,5.30
2018-05-08T10:04:14.516Z,2.43
2018-05-08T10:06:18.072Z,5.63
2018-05-08T10:08:21.612Z,2.47
2018-05-08T10:10:24.814Z,4.03
2018-05-08T10:12:28.340Z,2.70
2018-05-08T10:14:31.886Z,1.80
2018-05-08T10:16:35.401Z,5.07
2018-05-08T10:18:39.022Z,3.40
2018-05-08T10:20:42.574Z,5.80
2018-05-08T10:22:46.277Z,5.00
2018-05-08T10:24:49.793Z,2.80
2018-05-08T10:26:53.364Z,6.07
2018-05-08T10:28:57.165Z,3.87
2018-05-08T10:31:00.711Z,4.83
2018-05-08T10:33:04.369Z,5.97
2018-05-08T10:35:08.188Z,2.83
2018-05-08T10:37:11.679Z,4.20
2018-05-08T10:39:15.242Z,2.17
2018-05-08T10:41:19.721Z,3.50
2018-05-08T10:43:23.026Z,5.60
2018-05-08T10:45:26.615Z,2.50
2018-05-08T10:47:30.741Z,4.60
2018-05-08T10:49:34.313Z,2.83
2018-05-08T10:51:37.877Z,5.10
2018-05-08T10:53:41.358Z,4.60
2018-05-08T10:55:44.911Z,4.03
2018-05-08T10:57:48.670Z,5.70
2018-05-08T10:59:52.202Z,4.37
2018-05-08T11:01:55.774Z,4.20
2018-05-08T11:03:59.354Z,3.13
2018-05-08T11:06:03.010Z,4.27
2018-05-08T11:08:06.574Z,5.03
2018-05-08T11:10:10.165Z,3.27
2018-05-08T11:12:13.787Z,4.00
2018-05-08T11:14:17.331Z,4.37
2018-05-08T11:16:21.011Z,2.60
2018-05-08T11:18:24.827Z,3.20
2018-05-08T11:20:28.521Z,7.57
2018-05-08T11:22:31.914Z,3.73
2018-05-08T11:24:35.445Z,3.80
2018-05-08T11:26:39.093Z,4.13
2018-05-08T11:28:42.670Z,2.10
2018-05-08T11:30:46.249Z,2.63
2018-05-08T11:32:49.826Z,2.97
2018-05-08T11:34:53.425Z,3.27
2018-05-08T11:36:57.659Z,7.30
2018-05-08T11:39:01.222Z,4.87
2018-05-08T11:41:04.828Z,2.07
2018-05-08T11:43:08.378Z,2.67
2018-05-08T11:45:11.901Z,1.67
2018-05-08T11:47:15.427Z,3.43
2018-05-08T11:49:18.962Z,4.93
2018-05-08T11:51:22.481Z,3.27
2018-05-08T11:53:26.010Z,1.93
2018-05-08T11:55:29.558Z,2.70
2018-05-08T11:57:33.124Z,3.53
2018-05-08T11:59:36.730Z,4.00
2018-05-08T12:01:40.253Z,2.47
2018-05-08T12:03:43.835Z,4.80
2018-05-08T12:05:47.357Z,2.03
2018-05-08T12:07:50.859Z,4.67
2018-05-08T12:09:54.457Z,3.70
2018-05-08T12:11:57.977Z,4.53
2018-05-08T12:14:01.554Z,1.93
2018-05-08T12:16:05.122Z,2.43
2018-05-08T12:18:09.032Z,2.97
2018-05-08T12:20:12.550Z,6.67
2018-05-08T12:22:16.086Z,5.10
2018-05-08T12:24:19.657Z,3.40
2018-05-08T12:26:23.198Z,4.50
2018-05-08T12:28:26.421Z,2.40
2018-05-08T12:30:29.968Z,2.33
2018-05-08T12:32:33.497Z,2.20
2018-05-08T12:34:37.097Z,3.63
2018-05-08T12:36:40.687Z,2.10
2018-05-08T12:38:44.239Z,4.60
2018-05-08T12:40:47.872Z,2.63
2018-05-08T12:42:51.297Z,3.10
2018-05-08T12:44:54.869Z,3.50
2018-05-08T12:46:58.429Z,3.43
2018-05-08T12:49:01.966Z,4.70
2018-05-08T12:51:05.522Z,4.57
2018-05-08T12:53:09.102Z,2.30
2018-05-08T12:55:12.426Z,4.17
2018-05-08T12:57:16.009Z,2.27
2018-05-08T12:59:19.546Z,1.63
2018-05-08T13:01:23.100Z,2.70
2018-05-08T13:03:26.632Z,4.90
2018-05-08T13:05:30.146Z,2.47
2018-05-08T13:07:33.731Z,2.53
2018-05-08T13:09:37.253Z,2.43
2018-05-08T13:11:40.821Z,2.63
2018-05-08T13:13:44.343Z,4.37
2018-05-08T13:15:47.871Z,2.17
2018-05-08T13:17:51.427Z,3.43
2018-05-08T13:19:54.949Z,4.83
2018-05-08T13:21:58.488Z,2.77
2018-05-08T13:24:02.097Z,1.70
2018-05-08T13:26:05.617Z,2.87
2018-05-08T13:28:09.152Z,4.53
2018-05-08T13:30:12.732Z,3.33
2018-05-08T13:32:16.350Z,3.83
2018-05-08T13:34:20.137Z,2.03
2018-05-08T13:36:23.438Z,2.60
2018-05-08T13:38:26.998Z,2.37
2018-05-08T13:40:30.523Z,3.30
2018-05-08T13:42:34.070Z,3.40
2018-05-08T13:44:37.626Z,2.67
2018-05-08T13:46:47.768Z,3.50
2018-05-08T13:48:51.339Z,1.77
2018-05-08T13:50:54.876Z,5.80
2018-05-08T13:52:58.554Z,2.37
2018-05-08T13:55:01.872Z,3.23
2018-05-08T13:57:05.583Z,1.30
2018-05-08T13:59:09.134Z,3.70
2018-05-08T14:01:13.549Z,2.50
2018-05-08T14:03:17.086Z,1.97
2018-05-08T14:05:20.637Z,4.57
2018-05-08T14:07:23.812Z,2.53
2018-05-08T14:09:27.343Z,2.53
2018-05-08T14:11:30.843Z,3.50
2018-05-08T14:13:34.392Z,3.13
2018-05-08T14:15:38.285Z,3.00
2018-05-08T14:17:41.821Z,2.87
2018-05-08T14:19:45.366Z,3.90
2018-05-08T14:21:48.898Z,5.50
2018-05-08T14:23:52.393Z,5.80
2018-05-08T14:25:55.937Z,4.80
2018-05-08T14:27:59.493Z,2.07
2018-05-08T14:30:03.047Z,3.17
2018-05-08T14:32:06.557Z,4.50
2018-05-08T14:34:10.082Z,3.17
2018-05-08T14:36:13.631Z,5.00
2018-05-08T14:38:17.162Z,1.77
2018-05-08T14:40:20.346Z,2.07
2018-05-08T14:42:23.867Z,3.63
2018-05-08T14:44:27.392Z,5.03
2018-05-08T14:46:30.973Z,2.83
2018-05-08T14:48:34.494Z,1.53
2018-05-08T14:50:38.035Z,3.53
2018-05-08T14:52:41.547Z,3.50
2018-05-08T14:54:45.054Z,3.27
2018-05-08T14:56:49.044Z,2.80
2018-05-08T14:58:53.260Z,3.33
2018-05-08T15:00:57.749Z,3.97
2018-05-08T15:03:02.056Z,4.27
2018-05-08T15:05:05.914Z,5.57
2018-05-08T15:07:10.473Z,3.80
2018-05-08T15:09:14.791Z,4.83
2018-05-08T15:11:19.095Z,3.37
2018-05-08T15:13:22.695Z,1.83
2018-05-08T15:15:26.223Z,2.13
2018-05-08T15:17:29.738Z,3.80
2018-05-08T15:19:33.286Z,7.70
2018-05-08T15:21:37.229Z,4.33
2018-05-08T15:23:41.345Z,2.17
2018-05-08T15:25:45.426Z,6.30
2018-05-08T15:27:49.421Z,3.60
2018-05-08T15:29:53.567Z,5.27
2018-05-08T15:31:57.709Z,3.27
2018-05-08T15:34:01.752Z,3.37
2018-05-08T15:36:05.602Z,2.13
2018-05-08T15:38:09.721Z,1.70
2018-05-08T15:40:14.080Z,2.37
2018-05-08T15:42:18.496Z,3.50
2018-05-08T15:44:22.150Z,3.17
2018-05-08T15:46:25.877Z,3.50
2018-05-08T15:48:29.426Z,2.90
2018-05-08T15:50:32.950Z,5.03
2018-05-08T15:52:36.498Z,2.23
2018-05-08T15:54:40.274Z,3.40
2018-05-08T15:56:43.810Z,3.60
2018-05-08T15:58:47.331Z,3.20
2018-05-08T16:00:51.764Z,3.00
2018-05-08T16:02:55.914Z,3.87
2018-05-08T16:05:00.160Z,3.27
2018-05-08T16:07:04.337Z,3.13
2018-05-08T16:09:08.446Z,3.23
2018-05-08T16:11:12.598Z,3.67
2018-05-08T16:13:16.800Z,2.87
2018-05-08T16:15:21.147Z,3.03
2018-05-08T16:17:25.710Z,2.53
2018-05-08T16:19:31.163Z,3.43
2018-05-08T16:21:35.588Z,3.23
2018-05-08T16:23:39.827Z,3.27
2018-05-08T16:25:43.734Z,4.53
2018-05-08T16:27:47.262Z,2.33
2018-05-08T16:29:50.789Z,5.10
2018-05-08T16:31:54.305Z,3.63
2018-05-08T16:33:57.654Z,3.47
2018-05-08T16:36:02.147Z,6.60
2018-05-08T16:38:06.871Z,2.33
2018-05-08T16:40:11.220Z,4.73
2018-05-08T16:42:15.780Z,4.73
2018-05-08T16:44:19.786Z,4.53
2018-05-08T16:46:24.331Z,3.73
2018-05-08T16:48:28.659Z,3.30
2018-05-08T16:50:33.107Z,2.47
2018-05-08T16:52:37.663Z,3.20
2018-05-08T16:54:42.046Z,6.47
2018-05-08T16:56:46.192Z,4.13
2018-05-08T16:58:50.587Z,8.53
2018-05-08T17:00:54.985Z,5.13
2018-05-08T17:02:59.368Z,4.90
2018-05-08T17:05:03.764Z,3.20
2018-05-08T17:07:08.109Z,3.53
2018-05-08T17:09:12.154Z,4.50
2018-05-08T17:11:16.283Z,6.43
2018-05-08T17:13:21.048Z,4.20
2018-05-08T17:15:25.217Z,5.97
2018-05-08T17:17:29.984Z,5.20
2018-05-08T17:19:33.984Z,4.73
2018-05-08T17:21:37.600Z,4.83
2018-05-08T17:23:41.125Z,7.80
2018-05-08T17:25:44.833Z,5.37
2018-05-08T17:27:48.518Z,3.60
2018-05-08T17:29:52.070Z,4.83
2018-05-08T17:31:55.631Z,4.67
2018-05-08T17:33:58.943Z,4.03
2018-05-08T17:36:02.857Z,3.93
2018-05-08T17:38:07.193Z,3.67
2018-05-08T17:40:11.203Z,2.70
2018-05-08T17:42:16.212Z,2.93
2018-05-08T17:44:20.495Z,3.13
2018-05-08T17:46:24.631Z,2.83
2018-05-08T17:48:28.925Z,3.23
2018-05-08T17:50:33.458Z,2.37
2018-05-08T17:52:37.601Z,5.90
2018-05-08T17:54:41.796Z,3.23
2018-05-08T17:56:45.922Z,5.43
2018-05-08T17:58:50.205Z,5.10
2018-05-08T18:00:54.307Z,5.20
2018-05-08T18:02:58.460Z,4.00
2018-05-08T18:05:02.670Z,4.77
2018-05-08T18:07:06.785Z,4.13
2018-05-08T18:09:10.990Z,5.90
2018-05-08T18:11:15.214Z,3.83
2018-05-08T18:13:19.361Z,3.23
2018-05-08T18:15:23.879Z,4.67
2018-05-08T18:17:27.515Z,4.93
2018-05-08T18:19:31.058Z,4.90
2018-05-08T18:21:34.581Z,3.90
2018-05-08T18:23:38.122Z,3.93
2018-05-08T18:25:42.155Z,5.97
2018-05-08T18:27:46.143Z,4.00
2018-05-08T18:29:51.381Z,5.23
2018-05-08T18:31:55.476Z,5.47
2018-05-08T18:33:59.528Z,4.33
2018-05-08T18:36:03.900Z,3.43
2018-05-08T18:38:07.499Z,3.00
2018-05-08T18:40:11.045Z,4.67
2018-05-08T18:42:14.596Z,3.73
2018-05-08T18:44:18.132Z,3.67
2018-05-08T18:46:22.180Z,6.47
2018-05-08T18:48:26.354Z,6.03
2018-05-08T18:50:29.919Z,6.17
2018-05-08T18:52:33.461Z,7.83
2018-05-08T18:54:37.006Z,6.63
2018-05-08T18:56:40.579Z,2.40
2018-05-08T18:58:44.424Z,4.17
2018-05-08T19:00:53.394Z,3.90
2018-05-08T19:02:57.358Z,2.47
2018-05-08T19:05:00.909Z,5.83
2018-05-08T19:07:04.546Z,4.73
2018-05-08T19:09:08.231Z,4.27
2018-05-08T19:11:17.194Z,4.63
2018-05-08T19:13:20.706Z,6.47
2018-05-08T19:15:30.252Z,5.23
2018-05-08T19:17:34.650Z,2.73
2018-05-08T19:19:44.194Z,4.30
2018-05-08T19:21:48.304Z,7.73
2018-05-08T19:23:57.839Z,3.97
2018-05-08T19:26:02.010Z,5.47
2018-05-08T19:28:11.424Z,4.23
2018-05-08T19:30:20.855Z,3.20
2018-05-08T19:32:25.456Z,3.97
2018-05-08T19:34:35.107Z,5.37
2018-05-08T19:36:44.359Z,5.83
2018-05-08T19:38:48.754Z,7.60
2018-05-08T19:40:53.060Z,7.43
2018-05-08T19:42:58.817Z,5.57
2018-05-08T19:45:03.350Z,9.00
2018-05-08T19:47:07.622Z,8.97
2018-05-08T19:49:11.729Z,3.93
2018-05-08T19:51:15.940Z,11.93
2018-05-08T19:53:20.082Z,10.23
2018-05-08T19:55:24.309Z,22.03
2018-05-08T19:57:27.832Z,27.97
2018-05-08T19:59:31.010Z,18.53
2018-05-08T20:01:34.541Z,18.77
2018-05-08T20:03:38.056Z,25.23
2018-05-08T20:05:41.626Z,15.93
2018-05-08T20:07:45.158Z,11.13
2018-05-08T20:09:48.674Z,9.37
2018-05-08T20:11:52.245Z,7.00
2018-05-08T20:13:55.787Z,7.80
2018-05-08T20:15:58.974Z,8.50
2018-05-08T20:18:03.537Z,7.73
2018-05-08T20:20:07.342Z,4.00
2018-05-08T20:22:11.603Z,9.10
2018-05-08T20:24:15.700Z,4.97
2018-05-08T20:26:20.133Z,4.70
2018-05-08T20:28:24.562Z,3.57
2018-05-08T20:30:28.110Z,5.80
2018-05-08T20:32:31.654Z,7.33
2018-05-08T20:34:35.190Z,6.80
2018-05-08T20:36:38.734Z,5.47
2018-05-08T20:38:42.277Z,5.13
2018-05-08T20:40:45.789Z,4.00
2018-05-08T20:42:49.321Z,7.93
2018-05-08T20:44:52.864Z,6.27
2018-05-08T20:46:56.132Z,4.70
2018-05-08T20:49:00.596Z,8.53
2018-05-08T20:51:04.935Z,5.17
2018-05-08T20:53:09.029Z,5.80
2018-05-08T20:55:13.051Z,6.53
2018-05-08T20:57:17.231Z,4.93
2018-05-08T20:59:21.336Z,4.33
2018-05-08T21:01:25.359Z,7.87
2018-05-08T21:03:29.044Z,5.80
2018-05-08T21:05:32.586Z,4.87
2018-05-08T21:07:36.147Z,7.47
2018-05-08T21:09:39.702Z,3.60
2018-05-08T21:11:43.238Z,3.93
2018-05-08T21:13:46.818Z,7.77
2018-05-08T21:15:50.751Z,4.60
2018-05-08T21:17:54.851Z,4.43
2018-05-08T21:19:59.218Z,4.57
2018-05-08T21:22:03.212Z,8.73
2018-05-08T21:24:07.315Z,5.23
2018-05-08T21:26:11.697Z,6.70
2018-05-08T21:28:21.047Z,4.97
2018-05-08T21:30:30.669Z,4.10
2018-05-08T21:32:35.121Z,4.53
2018-05-08T21:34:39.369Z,4.33
2018-05-08T21:36:43.763Z,4.20
2018-05-08T21:38:47.755Z,5.90
2018-05-08T21:40:52.654Z,6.37
2018-05-08T21:42:56.483Z,6.03
2018-05-08T21:45:00.063Z,7.40
2018-05-08T21:47:03.588Z,6.23
2018-05-08T21:49:07.107Z,6.53
2018-05-08T21:51:10.670Z,6.60
2018-05-08T21:53:14.163Z,5.20
2018-05-08T21:55:17.765Z,4.47
2018-05-08T21:57:21.287Z,4.83
2018-05-08T21:59:25.658Z,5.07
2018-05-08T22:01:29.795Z,5.60
2018-05-08T22:03:33.834Z,7.13
2018-05-08T22:05:37.819Z,5.13
2018-05-08T22:07:42.159Z,7.57
2018-05-08T22:09:46.095Z,7.67
2018-05-08T22:11:50.449Z,6.17
2018-05-08T22:13:54.388Z,7.20
2018-05-08T22:15:58.296Z,7.83
2018-05-08T22:18:02.356Z,5.63
2018-05-08T22:20:06.380Z,5.63
2018-05-08T22:22:10.582Z,5.60
2018-05-08T22:24:14.628Z,6.93
2018-05-08T22:26:18.674Z,4.60
2018-05-08T22:28:22.257Z,3.23
2018-05-08T22:30:25.789Z,5.33
2018-05-08T22:32:29.989Z,5.13
2018-05-08T22:34:33.502Z,6.53
2018-05-08T22:36:37.038Z,4.30
2018-05-08T22:38:40.989Z,5.37
2018-05-08T22:40:45.104Z,7.83
2018-05-08T22:42:49.318Z,5.53
2018-05-08T22:44:53.482Z,6.70
2018-05-08T22:46:57.427Z,4.13
2018-05-08T22:49:02.191Z,5.10
2018-05-08T22:51:05.739Z,3.80
